Flight Track Log - Related Links

Times and Time Zones

All times are in EDT time to prevent confusion due to time zone crossing. See the DAL1205 flight status page for this flight to view local times or setup timezone preferences in your user account.

Time Position Orientation Groundspeed Altitude Reporting Facility
EDT Latitude Longitude Course Direction KTS MPH feet Rate Location/Type
Wed 07:20:24 PM 33.6500 -84.3333 342° North 226 260 3,200  Level Atlanta TRACON
Wed 07:21:24 PM 33.6667 -84.2500 76° East 269 310 6,400 3,050 Climbing Atlanta TRACON
Wed 07:22:00 PM 33.8867 -84.5680 342° North  Level FlightAware Approximate
Wed 07:22:24 PM 33.7167 -84.2000 40° Northeast 297 342 9,300  Level Atlanta TRACON
Wed 07:23:00 PM 33.9936 -84.6107 342° North  Level FlightAware Approximate
Wed 07:24:00 PM 34.1006 -84.6535 342° North  Level FlightAware Approximate
Wed 07:24:53 PM 33.9025 -84.3642 324° Northwest 342 394 13,400  Level Atlanta Center
Wed 07:25:00 PM 34.2075 -84.6963 342° North  Level FlightAware Approximate
Wed 07:25:53 PM 33.9878 -84.4447 322° Northwest 387 445 14,000  Level Atlanta Center
Wed 07:26:53 PM 34.0667 -84.5328 317° Northwest 394 453 15,400 2,100 Climbing Atlanta Center
Wed 07:27:53 PM 34.1433 -84.6386 311° West 401 461 18,200 2,650 Climbing Atlanta Center
Wed 07:28:53 PM 34.2203 -84.7372 313° West 407 468 20,700 2,100 Climbing Atlanta Center
Wed 07:29:53 PM 34.2906 -84.8383 310° West 407 468 22,400 2,050 Climbing Atlanta Center
Wed 07:30:53 PM 34.3439 -84.9594 298° West 404 465 24,800 1,700 Climbing Atlanta Center
Wed 07:31:53 PM 34.3678 -85.0908 282° West 401 461 25,800 600 Climbing Atlanta Center
Wed 07:32:53 PM 34.3939 -85.2244 283° West 412 474 26,000 100 Climbing Atlanta Center
Wed 07:33:53 PM 34.4153 -85.3683 280° West 420 483 26,000  Level Atlanta Center
Wed 07:34:53 PM 34.4242 -85.5144 274° West 431 496 26,000  Level Atlanta Center
Wed 07:35:53 PM 34.4369 -85.6583 276° West 431 496 26,000  Level Atlanta Center
Wed 07:36:53 PM 34.4642 -85.8050 283° West 442 509 26,000  Level Atlanta Center
Wed 07:37:53 PM 34.5206 -85.9372 297° West 440 506 26,000  Level Atlanta Center
Wed 07:38:53 PM 34.5769 -86.0697 297° West 445 512 26,000  Level Atlanta Center
Wed 07:39:53 PM 34.6289 -86.2047 295° West 445 512 26,000 -536 Level Atlanta Center
Wed 07:41:41 PM 34.7247 -86.4508 295° West 442 509 24,500 -714 Descending Memphis Center
Wed 07:42:41 PM 34.7903 -86.5489 309° West 424 488 24,000 -1,000 Descending Memphis Center
Wed 07:43:41 PM 34.9072 -86.5511 359° North 368 423 22,500 -1,900 Descending Memphis Center
Wed 07:44:41 PM 35.0261 -86.5508 360° North 381 438 20,200 -2,150 Descending Memphis Center
Wed 07:45:41 PM 35.1350 -86.5636 355° North 396 456 18,200 -2,200 Descending Memphis Center
Wed 07:46:41 PM 35.2417 -86.5792 353° North 391 450 15,800 -2,400 Descending Memphis Center
Wed 07:47:41 PM 35.3506 -86.5894 356° North 391 450 13,400 -1,600 Descending Memphis Center
Wed 07:48:41 PM 35.4547 -86.5847 North 383 441 12,600 -900 Descending Memphis Center
Wed 07:49:41 PM 35.5533 -86.6008 352° North 366 421 11,600 -750 Descending Memphis Center
Wed 07:50:41 PM 35.6458 -86.6247 348° North 344 396 11,100 -800 Descending Memphis Center
Wed 07:51:41 PM 35.7425 -86.6536 346° North 332 382 10,000 -1,250 Descending Memphis Center
Wed 07:52:41 PM 35.8269 -86.6139 21° North 312 359 8,600 -1,000 Descending Memphis Center
Wed 07:53:41 PM 35.9117 -86.5919 12° North 312 359 8,000 -1,000 Descending Memphis Center
Wed 07:54:41 PM 35.9964 -86.5703 12° North 312 359 6,600 -1,450 Descending Memphis Center
Wed 07:55:41 PM 36.0772 -86.5486 12° North 312 359 5,100 -1,200 Descending Memphis Center
Wed 07:56:41 PM 36.1539 -86.5347 North 292 336 4,200 -1,100 Descending Memphis Center
Wed 07:57:41 PM 36.2128 -86.5500 348° North 228 262 2,900 -1,300 Descending Memphis Center

Login

Don't have an account? Register now (free) for customized features, flight alerts, and more!